Time;durP1;ratioP1;P1;durP2;ratioP2;P2;SDS_P1;SDS_P2;PMS_P1;PMS_P2;Temp;Humidity;BMP_temperature;BMP_pressure;BME280_temperature;BME280_humidity;BME280_pressure;Samples;Min_cycle;Max_cycle;Signal;HPM_P1;HPM_P2
2022/10/07 00:00:47;;;;;;;0.10;0.10;;;;;;;;;;5016976;28;20260;-74
2022/10/07 00:03:14;;;;;;;0.00;0.00;;;;;;;;;;5032605;28;20235;-74
2022/10/07 00:05:40;;;;;;;0.10;0.10;;;;;;;;;;5016490;28;20241;-75
2022/10/07 00:08:08;;;;;;;0.10;0.10;;;;;;;;;;5032986;28;20245;-75
2022/10/07 00:10:38;;;;;;;0.10;0.10;;;;;;;;;;5015570;28;20243;-74
2022/10/07 00:13:05;;;;;;;0.10;0.10;;;;;;;;;;5033330;28;20446;-74
2022/10/07 00:15:31;;;;;;;0.10;0.10;;;;;;;;;;5015585;28;20237;-74
2022/10/07 00:17:57;;;;;;;0.10;0.10;;;;;;;;;;5034262;28;20229;-74
2022/10/07 00:20:24;;;;;;;0.10;0.10;;;;;;;;;;5014536;28;20214;-74
2022/10/07 00:22:52;;;;;;;0.07;0.07;;;;;;;;;;5035128;28;20206;-75
2022/10/07 00:25:18;;;;;;;0.10;0.10;;;;;;;;;;5013893;28;20505;-75
2022/10/07 00:27:46;;;;;;;0.10;0.10;;;;;;;;;;5035683;28;20447;-74
2022/10/07 00:30:13;;;;;;;0.10;0.10;;;;;;;;;;5013091;28;20207;-74
2022/10/07 00:32:39;;;;;;;0.10;0.10;;;;;;;;;;5036344;28;20217;-74
2022/10/07 00:35:06;;;;;;;0.10;0.10;;;;;;;;;;5016141;28;20208;-74
2022/10/07 00:37:32;;;;;;;0.10;0.10;;;;;;;;;;5037057;28;20290;-74
2022/10/07 00:39:58;;;;;;;0.10;0.10;;;;;;;;;;5022329;28;20215;-74
2022/10/07 00:42:25;;;;;;;0.10;0.10;;;;;;;;;;5027069;28;20248;-76
2022/10/07 00:44:53;;;;;;;0.10;0.10;;;;;;;;;;5022204;28;20430;-74
2022/10/07 00:47:23;;;;;;;0.10;0.10;;;;;;;;;;5026903;28;20473;-74
2022/10/07 00:49:54;;;;;;;0.10;0.10;;;;;;;;;;5022240;28;20206;-74
2022/10/07 00:52:22;;;;;;;0.10;0.10;;;;;;;;;;5027095;28;20264;-74
2022/10/07 00:54:52;;;;;;;0.10;0.10;;;;;;;;;;5022176;28;20400;-74
2022/10/07 00:57:18;;;;;;;0.10;0.10;;;;;;;;;;5026604;28;20247;-74
2022/10/07 00:59:44;;;;;;;0.10;0.10;;;;;;;;;;5022016;28;20304;-74
2022/10/07 01:02:12;;;;;;;0.10;0.10;;;;;;;;;;5026958;28;20426;-75
2022/10/07 01:04:39;;;;;;;0.10;0.10;;;;;;;;;;5021645;28;20227;-75
2022/10/07 01:07:06;;;;;;;0.10;0.10;;;;;;;;;;5016525;28;20494;-74
2022/10/07 01:09:32;;;;;;;0.10;0.10;;;;;;;;;;5025379;28;20209;-75
2022/10/07 01:12:00;;;;;;;0.10;0.10;;;;;;;;;;5029435;28;20240;-75
2022/10/07 01:14:37;;;;;;;0.10;0.10;;;;;;;;;;5025834;28;20267;-75
2022/10/07 01:17:06;;;;;;;0.10;0.10;;;;;;;;;;5030139;28;20247;-75
2022/10/07 01:19:41;;;;;;;0.10;0.10;;;;;;;;;;5025666;28;20211;-74
2022/10/07 01:22:15;;;;;;;0.10;0.10;;;;;;;;;;5030241;28;20242;-74
2022/10/07 01:24:45;;;;;;;0.10;0.10;;;;;;;;;;5025580;28;20225;-75
2022/10/07 01:27:13;;;;;;;0.10;0.10;;;;;;;;;;5030223;28;20242;-75
2022/10/07 01:29:42;;;;;;;0.10;0.10;;;;;;;;;;5025028;28;20214;-75
2022/10/07 01:32:11;;;;;;;0.10;0.10;;;;;;;;;;5030136;28;20382;-74
2022/10/07 01:34:38;;;;;;;0.10;0.10;;;;;;;;;;5025293;28;20203;-75
2022/10/07 01:37:06;;;;;;;0.10;0.10;;;;;;;;;;5029725;28;20284;-75
2022/10/07 01:39:36;;;;;;;0.10;0.10;;;;;;;;;;5025318;28;20236;-75
2022/10/07 01:42:04;;;;;;;0.10;0.10;;;;;;;;;;5029584;28;20511;-75
2022/10/07 01:44:32;;;;;;;0.10;0.10;;;;;;;;;;5025172;28;20238;-75
2022/10/07 01:46:58;;;;;;;0.10;0.10;;;;;;;;;;5028920;28;20530;-74
2022/10/07 01:49:25;;;;;;;0.30;0.30;;;;;;;;;;5025532;28;20218;-75
2022/10/07 01:51:57;;;;;;;0.10;0.10;;;;;;;;;;5027882;28;20501;-75
2022/10/07 01:54:26;;;;;;;0.10;0.10;;;;;;;;;;5025531;28;20198;-75
2022/10/07 01:56:59;;;;;;;0.10;0.10;;;;;;;;;;5027983;28;20251;-75
2022/10/07 01:59:39;;;;;;;0.10;0.10;;;;;;;;;;5025534;28;20411;-74
2022/10/07 02:02:11;;;;;;;0.10;0.10;;;;;;;;;;5029739;28;20240;-75
2022/10/07 02:04:45;;;;;;;0.10;0.10;;;;;;;;;;5024377;28;20215;-74
2022/10/07 02:07:17;;;;;;;0.10;0.10;;;;;;;;;;5029518;28;20568;-75
2022/10/07 02:09:46;;;;;;;0.10;0.10;;;;;;;;;;5024452;28;20258;-74
2022/10/07 02:12:16;;;;;;;0.10;0.10;;;;;;;;;;5029172;28;20249;-75
2022/10/07 02:14:45;;;;;;;0.10;0.10;;;;;;;;;;5024193;28;20281;-75
2022/10/07 02:17:15;;;;;;;0.10;0.10;;;;;;;;;;5028245;28;20258;-74
2022/10/07 02:19:43;;;;;;;0.10;0.10;;;;;;;;;;5024056;28;20306;-74
2022/10/07 02:22:11;;;;;;;0.10;0.10;;;;;;;;;;5029098;28;20352;-74
2022/10/07 02:24:38;;;;;;;0.10;0.10;;;;;;;;;;5023883;28;20298;-74
2022/10/07 02:27:07;;;;;;;0.10;0.10;;;;;;;;;;5028757;28;20253;-74
2022/10/07 02:29:35;;;;;;;0.10;0.10;;;;;;;;;;5024329;28;20377;-74
2022/10/07 02:32:04;;;;;;;0.10;0.10;;;;;;;;;;5028264;28;20237;-75
2022/10/07 02:34:31;;;;;;;0.10;0.10;;;;;;;;;;5024289;28;20201;-74
2022/10/07 02:37:00;;;;;;;0.10;0.10;;;;;;;;;;5027775;28;20247;-74
2022/10/07 02:39:26;;;;;;;0.10;0.10;;;;;;;;;;5024654;28;20232;-74
2022/10/07 02:41:56;;;;;;;0.10;0.10;;;;;;;;;;5027185;28;20300;-74
2022/10/07 02:44:25;;;;;;;0.10;0.10;;;;;;;;;;5024898;28;20231;-74
2022/10/07 02:46:53;;;;;;;0.10;0.10;;;;;;;;;;5026961;28;20343;-74
2022/10/07 02:49:23;;;;;;;0.10;0.10;;;;;;;;;;5025133;28;20215;-75
2022/10/07 02:51:52;;;;;;;0.10;0.10;;;;;;;;;;5026507;28;20240;-74
2022/10/07 02:54:24;;;;;;;0.10;0.10;;;;;;;;;;5025959;28;20302;-75
2022/10/07 02:56:51;;;;;;;0.10;0.10;;;;;;;;;;5027224;28;20586;-75
2022/10/07 02:59:19;;;;;;;0.10;0.10;;;;;;;;;;5025855;28;20515;-75
2022/10/07 03:01:47;;;;;;;0.10;0.10;;;;;;;;;;5026300;28;20247;-75
2022/10/07 03:04:15;;;;;;;0.10;0.10;;;;;;;;;;5023381;28;20253;-75
2022/10/07 03:06:42;;;;;;;0.10;0.10;;;;;;;;;;5025749;28;20241;-73
2022/10/07 03:09:09;;;;;;;0.10;0.10;;;;;;;;;;5027003;28;20211;-74
2022/10/07 03:11:37;;;;;;;0.10;0.10;;;;;;;;;;5025453;28;20326;-74
2022/10/07 03:14:04;;;;;;;0.10;0.10;;;;;;;;;;5027771;28;20203;-74
2022/10/07 03:16:30;;;;;;;0.10;0.10;;;;;;;;;;5024721;28;20240;-76
2022/10/07 03:18:57;;;;;;;0.10;0.10;;;;;;;;;;5028763;28;20223;-75
2022/10/07 03:21:24;;;;;;;0.10;0.10;;;;;;;;;;5024189;28;20267;-75
2022/10/07 03:23:52;;;;;;;0.10;0.10;;;;;;;;;;5029374;28;20218;-75
2022/10/07 03:26:18;;;;;;;0.10;0.10;;;;;;;;;;5022772;28;20250;-76
2022/10/07 03:28:51;;;;;;;0.10;0.10;;;;;;;;;;5029840;28;20302;-76
2022/10/07 03:31:17;;;;;;;0.10;0.10;;;;;;;;;;5022470;28;20237;-75
2022/10/07 03:33:44;;;;;;;0.10;0.10;;;;;;;;;;5030309;28;20216;-75
2022/10/07 03:36:12;;;;;;;0.10;0.10;;;;;;;;;;5021773;28;20478;-76
2022/10/07 03:38:39;;;;;;;0.10;0.10;;;;;;;;;;5031160;28;20222;-74
2022/10/07 03:41:07;;;;;;;0.10;0.10;;;;;;;;;;5020710;28;20409;-75
2022/10/07 03:43:34;;;;;;;0.10;0.10;;;;;;;;;;5031298;28;20209;-75
2022/10/07 03:46:01;;;;;;;0.10;0.10;;;;;;;;;;5020041;28;20544;-76
2022/10/07 03:48:27;;;;;;;0.10;0.10;;;;;;;;;;5031831;28;20254;-75
2022/10/07 03:50:56;;;;;;;0.10;0.10;;;;;;;;;;5019269;28;20237;-76
2022/10/07 03:53:23;;;;;;;0.10;0.10;;;;;;;;;;5031262;28;20499;-74
2022/10/07 03:55:49;;;;;;;0.10;0.10;;;;;;;;;;5018296;28;20427;-75
2022/10/07 03:58:17;;;;;;;0.10;0.10;;;;;;;;;;5031887;28;20422;-74
2022/10/07 04:00:43;;;;;;;0.10;0.10;;;;;;;;;;5016433;28;20443;-75
2022/10/07 04:03:10;;;;;;;0.10;0.10;;;;;;;;;;5033027;28;20205;-75
2022/10/07 04:05:36;;;;;;;0.10;0.10;;;;;;;;;;5015084;28;20250;-74
2022/10/07 04:08:04;;;;;;;0.10;0.10;;;;;;;;;;5034115;28;20274;-75
2022/10/07 04:10:31;;;;;;;0.10;0.10;;;;;;;;;;5015299;28;20461;-75
2022/10/07 04:12:57;;;;;;;0.10;0.10;;;;;;;;;;5034067;28;20205;-75
2022/10/07 04:15:26;;;;;;;0.10;0.10;;;;;;;;;;5014506;28;20202;-75
2022/10/07 04:17:55;;;;;;;0.10;0.10;;;;;;;;;;5034817;28;20400;-75
2022/10/07 04:20:21;;;;;;;0.20;0.20;;;;;;;;;;5013710;28;20221;-75
2022/10/07 04:22:47;;;;;;;0.10;0.10;;;;;;;;;;5035202;28;20228;-74
2022/10/07 04:27:58;;;;;;;0.10;0.10;;;;;;;;;;5033981;28;20274;-75
2022/10/07 04:30:26;;;;;;;0.10;0.10;;;;;;;;;;5014590;28;20250;-75
2022/10/07 04:32:52;;;;;;;0.10;0.10;;;;;;;;;;5035588;28;20284;-75
2022/10/07 04:35:19;;;;;;;0.10;0.10;;;;;;;;;;5014722;28;20264;-74
2022/10/07 04:37:47;;;;;;;0.10;0.10;;;;;;;;;;5036292;28;20221;-75
2022/10/07 04:40:14;;;;;;;0.10;0.10;;;;;;;;;;5014445;28;20205;-74
2022/10/07 04:45:26;;;;;;;0.10;0.10;;;;;;;;;;5019185;28;20336;-76
2022/10/07 04:47:52;;;;;;;0.10;0.10;;;;;;;;;;5039250;28;20208;-78
2022/10/07 04:50:18;;;;;;;0.10;0.10;;;;;;;;;;5016909;28;20300;-78
2022/10/07 04:52:45;;;;;;;0.10;0.10;;;;;;;;;;5039647;28;20207;-77
2022/10/07 04:55:13;;;;;;;0.10;0.10;;;;;;;;;;5016272;28;20428;-76
2022/10/07 04:57:39;;;;;;;0.10;0.10;;;;;;;;;;5040041;28;20209;-79
2022/10/07 05:00:07;;;;;;;0.10;0.10;;;;;;;;;;5019287;28;20226;-77
2022/10/07 05:02:34;;;;;;;0.10;0.10;;;;;;;;;;5040411;28;20213;-77
2022/10/07 05:05:01;;;;;;;0.10;0.10;;;;;;;;;;5025489;28;20228;-78
2022/10/07 05:07:27;;;;;;;0.20;0.20;;;;;;;;;;5030556;28;20467;-78
2022/10/07 05:09:53;;;;;;;0.20;0.20;;;;;;;;;;5025501;28;20363;-78
2022/10/07 05:12:19;;;;;;;0.93;0.93;;;;;;;;;;5030609;28;20237;-77
2022/10/07 05:14:46;;;;;;;0.10;0.10;;;;;;;;;;5025507;28;20208;-79
2022/10/07 05:17:13;;;;;;;0.10;0.10;;;;;;;;;;5030633;28;20328;-78
2022/10/07 05:19:41;;;;;;;0.10;0.10;;;;;;;;;;5025690;28;20358;-77
2022/10/07 05:22:07;;;;;;;0.10;0.10;;;;;;;;;;5030510;28;20244;-78
2022/10/07 05:24:34;;;;;;;0.10;0.10;;;;;;;;;;5025305;28;20274;-77
2022/10/07 05:27:00;;;;;;;0.10;0.10;;;;;;;;;;5029562;28;20426;-78
2022/10/07 05:29:28;;;;;;;0.10;0.10;;;;;;;;;;5025956;28;20205;-77
2022/10/07 05:31:54;;;;;;;0.10;0.10;;;;;;;;;;5029269;28;20277;-75
2022/10/07 05:34:20;;;;;;;0.10;0.10;;;;;;;;;;5026917;28;20204;-74
2022/10/07 05:36:48;;;;;;;0.10;0.10;;;;;;;;;;5027572;28;20236;-75
2022/10/07 05:39:14;;;;;;;0.10;0.10;;;;;;;;;;5027537;28;20398;-75
2022/10/07 05:41:41;;;;;;;0.10;0.10;;;;;;;;;;5026857;28;20640;-74
2022/10/07 05:44:07;;;;;;;0.10;0.10;;;;;;;;;;5028078;28;20276;-75
2022/10/07 05:46:36;;;;;;;0.10;0.10;;;;;;;;;;5025696;28;20567;-75
2022/10/07 05:49:03;;;;;;;0.10;0.10;;;;;;;;;;5028626;28;20217;-75
2022/10/07 05:51:29;;;;;;;0.10;0.10;;;;;;;;;;5024475;28;20244;-74
2022/10/07 05:53:56;;;;;;;0.10;0.10;;;;;;;;;;5028824;28;20206;-74
2022/10/07 05:56:23;;;;;;;0.10;0.10;;;;;;;;;;5024112;28;20240;-75
2022/10/07 05:58:50;;;;;;;0.10;0.10;;;;;;;;;;5029920;28;20236;-75
2022/10/07 06:01:17;;;;;;;0.10;0.10;;;;;;;;;;5023080;28;20251;-74
2022/10/07 06:03:44;;;;;;;0.10;0.10;;;;;;;;;;5031169;28;20382;-74
2022/10/07 06:06:10;;;;;;;0.10;0.10;;;;;;;;;;5022493;28;20242;-75
2022/10/07 06:08:37;;;;;;;0.20;0.20;;;;;;;;;;5031477;28;20380;-75
2022/10/07 06:13:49;;;;;;;0.10;0.10;;;;;;;;;;5029850;28;20515;-74
2022/10/07 06:16:15;;;;;;;0.10;0.10;;;;;;;;;;5022783;28;20257;-75
2022/10/07 06:18:42;;;;;;;0.10;0.10;;;;;;;;;;5030624;28;20458;-74
2022/10/07 06:21:08;;;;;;;0.10;0.10;;;;;;;;;;5021878;28;20474;-75
2022/10/07 06:23:34;;;;;;;0.10;0.10;;;;;;;;;;5031384;28;20212;-74
2022/10/07 06:26:01;;;;;;;0.10;0.10;;;;;;;;;;5020859;28;20564;-75
2022/10/07 06:28:32;;;;;;;0.10;0.10;;;;;;;;;;5031971;28;20207;-74
2022/10/07 06:30:58;;;;;;;0.13;0.13;;;;;;;;;;5020363;28;20240;-74
2022/10/07 06:33:24;;;;;;;0.10;0.10;;;;;;;;;;5032489;28;20281;-74
2022/10/07 06:35:54;;;;;;;0.10;0.10;;;;;;;;;;5019081;28;20319;-75
2022/10/07 06:38:20;;;;;;;0.10;0.10;;;;;;;;;;5032678;28;20512;-74
2022/10/07 06:40:57;;;;;;;0.10;0.10;;;;;;;;;;5018504;28;20249;-78
2022/10/07 06:43:24;;;;;;;0.10;0.10;;;;;;;;;;5032211;28;20549;-77
2022/10/07 06:45:52;;;;;;;0.10;0.10;;;;;;;;;;5019062;28;20380;-78
2022/10/07 06:48:18;;;;;;;0.10;0.10;;;;;;;;;;5033024;28;20284;-77
2022/10/07 06:50:49;;;;;;;0.10;0.10;;;;;;;;;;5018223;28;20258;-77
2022/10/07 06:53:15;;;;;;;0.10;0.10;;;;;;;;;;5033440;28;20219;-78
2022/10/07 06:55:42;;;;;;;0.10;0.10;;;;;;;;;;5017878;28;20250;-77
2022/10/07 06:58:08;;;;;;;0.10;0.10;;;;;;;;;;5033982;28;20219;-76
2022/10/07 07:00:35;;;;;;;0.10;0.10;;;;;;;;;;5016842;28;20246;-77
2022/10/07 07:03:03;;;;;;;0.10;0.10;;;;;;;;;;5034266;28;20458;-76
2022/10/07 07:05:33;;;;;;;0.17;0.17;;;;;;;;;;5015888;28;20244;-76
2022/10/07 07:07:59;;;;;;;0.10;0.10;;;;;;;;;;5034728;28;20219;-76
2022/10/07 07:10:26;;;;;;;0.10;0.10;;;;;;;;;;5015807;28;20281;-76
2022/10/07 07:12:52;;;;;;;0.10;0.10;;;;;;;;;;5035771;28;20210;-76
2022/10/07 07:15:19;;;;;;;0.10;0.10;;;;;;;;;;5014383;28;20252;-76
2022/10/07 07:17:46;;;;;;;0.10;0.10;;;;;;;;;;5036596;28;20509;-76
2022/10/07 07:20:14;;;;;;;0.10;0.10;;;;;;;;;;5013899;28;20248;-76
2022/10/07 07:22:40;;;;;;;0.10;0.10;;;;;;;;;;5037195;28;20213;-76
2022/10/07 07:25:08;;;;;;;0.10;0.10;;;;;;;;;;5015977;28;20206;-75
2022/10/07 07:27:35;;;;;;;0.10;0.10;;;;;;;;;;5037536;28;20266;-76
2022/10/07 07:30:01;;;;;;;0.17;0.17;;;;;;;;;;5023128;28;20210;-76
2022/10/07 07:32:28;;;;;;;0.10;0.10;;;;;;;;;;5027998;28;20241;-77
2022/10/07 07:34:55;;;;;;;0.10;0.10;;;;;;;;;;5022692;28;20205;-76
2022/10/07 07:37:23;;;;;;;0.10;0.10;;;;;;;;;;5027646;28;20298;-76
2022/10/07 07:39:49;;;;;;;0.10;0.10;;;;;;;;;;5022965;28;20213;-75
2022/10/07 07:42:16;;;;;;;0.10;0.10;;;;;;;;;;5027491;28;20315;-75
2022/10/07 07:44:43;;;;;;;0.10;0.10;;;;;;;;;;5022918;28;20214;-75
2022/10/07 07:47:10;;;;;;;0.10;0.10;;;;;;;;;;5027505;28;20248;-76
2022/10/07 07:49:36;;;;;;;0.10;0.10;;;;;;;;;;5022566;28;20512;-74
2022/10/07 07:52:04;;;;;;;0.10;0.10;;;;;;;;;;5026993;28;20355;-75
2022/10/07 07:54:32;;;;;;;0.10;0.10;;;;;;;;;;5023094;28;20213;-75
2022/10/07 07:56:59;;;;;;;0.10;0.10;;;;;;;;;;5026558;28;20300;-76
2022/10/07 07:59:25;;;;;;;0.10;0.10;;;;;;;;;;5022879;28;20304;-76
2022/10/07 08:01:52;;;;;;;0.10;0.10;;;;;;;;;;5025638;28;20253;-75
2022/10/07 08:04:18;;;;;;;0.10;0.10;;;;;;;;;;5024360;28;20247;-75
2022/10/07 08:06:44;;;;;;;0.10;0.10;;;;;;;;;;5024509;28;20264;-75
2022/10/07 08:09:11;;;;;;;0.10;0.10;;;;;;;;;;5025373;28;20278;-74
2022/10/07 08:11:40;;;;;;;0.10;0.10;;;;;;;;;;5023183;28;20314;-72
2022/10/07 08:14:07;;;;;;;0.10;0.10;;;;;;;;;;5026234;28;20521;-74
2022/10/07 08:16:33;;;;;;;0.10;0.10;;;;;;;;;;5022168;28;20244;-73
2022/10/07 08:19:00;;;;;;;0.10;0.10;;;;;;;;;;5026368;28;20243;-73
2022/10/07 08:21:31;;;;;;;0.10;0.10;;;;;;;;;;5022069;28;20303;-73
2022/10/07 08:23:58;;;;;;;0.10;0.10;;;;;;;;;;5026429;28;20279;-73
2022/10/07 08:26:24;;;;;;;0.10;0.10;;;;;;;;;;5021702;28;20247;-72
2022/10/07 08:28:52;;;;;;;0.10;0.10;;;;;;;;;;5027389;28;20213;-73
2022/10/07 08:31:19;;;;;;;0.10;0.10;;;;;;;;;;5020277;28;20244;-72
2022/10/07 08:33:49;;;;;;;0.10;0.10;;;;;;;;;;5028203;28;20241;-73
2022/10/07 08:36:17;;;;;;;0.10;0.10;;;;;;;;;;5020592;28;20237;-72
2022/10/07 08:38:43;;;;;;;0.10;0.10;;;;;;;;;;5028140;28;20316;-73
2022/10/07 08:41:17;;;;;;;0.10;0.10;;;;;;;;;;5020111;28;20445;-73
2022/10/07 08:43:45;;;;;;;0.10;0.10;;;;;;;;;;5028148;28;20216;-73
2022/10/07 08:46:15;;;;;;;0.10;0.10;;;;;;;;;;5019782;28;20245;-73
2022/10/07 08:48:42;;;;;;;0.10;0.10;;;;;;;;;;5028340;28;20210;-73
2022/10/07 08:51:13;;;;;;;0.10;0.10;;;;;;;;;;5019778;28;20422;-73
2022/10/07 08:53:43;;;;;;;0.10;0.10;;;;;;;;;;5028746;28;20214;-73
2022/10/07 08:56:12;;;;;;;0.00;0.00;;;;;;;;;;5019914;28;20242;-73
2022/10/07 08:58:43;;;;;;;0.10;0.10;;;;;;;;;;5028632;28;20305;-73
2022/10/07 09:01:16;;;;;;;0.10;0.10;;;;;;;;;;5019957;28;20305;-73
2022/10/07 09:03:48;;;;;;;0.10;0.10;;;;;;;;;;5028367;28;20215;-73
2022/10/07 09:06:19;;;;;;;0.10;0.10;;;;;;;;;;5020667;28;20259;-73
2022/10/07 09:08:46;;;;;;;0.00;0.00;;;;;;;;;;5028121;28;20207;-73
2022/10/07 09:11:19;;;;;;;0.10;0.10;;;;;;;;;;5020107;28;20262;-73
2022/10/07 09:13:48;;;;;;;0.10;0.10;;;;;;;;;;5027906;28;20201;-73
2022/10/07 09:16:17;;;;;;;0.10;0.10;;;;;;;;;;5010695;28;20512;-73
2022/10/07 09:18:49;;;;;;;0.10;0.10;;;;;;;;;;5022291;28;20426;-72
2022/10/07 09:21:18;;;;;;;0.00;0.00;;;;;;;;;;5017598;28;20319;-73
2022/10/07 09:23:45;;;;;;;0.10;0.10;;;;;;;;;;5027851;28;20213;-72
2022/10/07 09:26:12;;;;;;;0.10;0.10;;;;;;;;;;5020391;28;20500;-72
2022/10/07 09:28:39;;;;;;;0.10;0.10;;;;;;;;;;5032038;28;20246;-73
2022/10/07 09:31:05;;;;;;;0.10;0.10;;;;;;;;;;5020347;28;20263;-74
2022/10/07 09:33:35;;;;;;;0.10;0.10;;;;;;;;;;5032932;28;20277;-72
2022/10/07 09:36:05;;;;;;;0.10;0.10;;;;;;;;;;5022240;28;20256;-73
2022/10/07 09:38:33;;;;;;;0.10;0.10;;;;;;;;;;5032823;28;20213;-73
2022/10/07 09:41:15;;;;;;;0.10;0.10;;;;;;;;;;5021944;28;20603;-73
2022/10/07 09:43:43;;;;;;;0.00;0.00;;;;;;;;;;5031446;28;20268;-73
2022/10/07 09:46:24;;;;;;;0.10;0.10;;;;;;;;;;5022634;28;20241;-73
2022/10/07 09:48:52;;;;;;;0.10;0.10;;;;;;;;;;5030093;28;20249;-73
2022/10/07 09:51:24;;;;;;;0.10;0.10;;;;;;;;;;5024099;28;20249;-73
2022/10/07 09:53:55;;;;;;;0.05;0.05;;;;;;;;;;5030255;28;20200;-73
2022/10/07 09:56:30;;;;;;;0.00;0.00;;;;;;;;;;5024187;28;20352;-71
2022/10/07 09:59:10;;;;;;;0.00;0.00;;;;;;;;;;5029195;28;20254;-73
2022/10/07 10:01:40;;;;;;;0.10;0.10;;;;;;;;;;5026044;28;20305;-77
2022/10/07 10:04:13;;;;;;;0.10;0.10;;;;;;;;;;5027737;28;20257;-76
2022/10/07 10:06:44;;;;;;;0.03;0.03;;;;;;;;;;5026274;28;20337;-77
2022/10/07 10:09:11;;;;;;;0.05;0.05;;;;;;;;;;5027164;28;20201;-76
2022/10/07 10:11:38;;;;;;;0.10;0.10;;;;;;;;;;5026003;28;20264;-76
2022/10/07 10:14:27;;;;;;;0.05;0.05;;;;;;;;;;5028151;28;20230;-77
2022/10/07 10:16:53;;;;;;;0.10;0.10;;;;;;;;;;5027975;28;20249;-78
2022/10/07 10:19:23;;;;;;;0.10;0.10;;;;;;;;;;5025764;28;20230;-77
2022/10/07 10:21:50;;;;;;;0.05;0.05;;;;;;;;;;5027471;28;20243;-76
2022/10/07 10:26:24;;;;;;;0.10;0.10;;;;;;;;;;5026058;28;20406;-76
2022/10/07 10:27:06;;;;;;;0.00;0.00;;;;;;;;;;5028803;28;20233;-77
2022/10/07 10:29:45;;;;;;;0.10;0.10;;;;;;;;;;5024328;28;20213;-76
2022/10/07 10:32:29;;;;;;;0.10;0.10;;;;;;;;;;5029162;28;20244;-76
2022/10/07 10:34:59;;;;;;;0.10;0.10;;;;;;;;;;5024268;28;20208;-77
2022/10/07 10:37:33;;;;;;;0.10;0.10;;;;;;;;;;5028746;28;20243;-76
2022/10/07 10:40:03;;;;;;;0.10;0.10;;;;;;;;;;5023800;28;20198;-77
2022/10/07 10:42:38;;;;;;;0.00;0.00;;;;;;;;;;5028985;28;20242;-78
2022/10/07 10:45:14;;;;;;;0.10;0.10;;;;;;;;;;5024201;28;20211;-73
2022/10/07 10:47:48;;;;;;;0.10;0.10;;;;;;;;;;5023519;28;20217;-72
2022/10/07 10:50:22;;;;;;;0.10;0.10;;;;;;;;;;5015153;28;20359;-73
2022/10/07 10:52:53;;;;;;;0.05;0.05;;;;;;;;;;5037278;28;20205;-74
2022/10/07 10:55:32;;;;;;;0.10;0.10;;;;;;;;;;5016447;28;20209;-75
2022/10/07 10:58:04;;;;;;;0.00;0.00;;;;;;;;;;5036196;28;20194;-76
2022/10/07 11:00:35;;;;;;;0.00;0.00;;;;;;;;;;5016103;28;20250;-75
2022/10/07 11:03:22;;;;;;;0.00;0.00;;;;;;;;;;5034807;28;20210;-74
2022/10/07 11:05:51;;;;;;;0.10;0.10;;;;;;;;;;5018755;28;20248;-75
2022/10/07 11:08:18;;;;;;;0.10;0.10;;;;;;;;;;5032903;28;20296;-75
2022/10/07 11:10:48;;;;;;;0.00;0.00;;;;;;;;;;5018603;28;20242;-76
2022/10/07 11:13:19;;;;;;;0.10;0.10;;;;;;;;;;5033312;28;20214;-77
2022/10/07 11:15:47;;;;;;;0.10;0.10;;;;;;;;;;5018601;28;20251;-76
2022/10/07 11:18:19;;;;;;;0.05;0.05;;;;;;;;;;5033495;28;20202;-76
2022/10/07 11:20:47;;;;;;;0.00;0.00;;;;;;;;;;5017969;28;20265;-76
2022/10/07 11:23:19;;;;;;;0.10;0.10;;;;;;;;;;5033278;28;20237;-76
2022/10/07 11:25:48;;;;;;;0.00;0.00;;;;;;;;;;5018555;28;20459;-77
2022/10/07 11:28:16;;;;;;;0.10;0.10;;;;;;;;;;5032792;28;20231;-69
2022/10/07 11:30:46;;;;;;;0.10;0.10;;;;;;;;;;5018056;28;20530;-73
2022/10/07 11:33:17;;;;;;;0.10;0.10;;;;;;;;;;5033516;28;20392;-70
2022/10/07 11:35:47;;;;;;;0.00;0.00;;;;;;;;;;5017269;28;20495;-65
2022/10/07 11:38:17;;;;;;;0.10;0.10;;;;;;;;;;5033563;28;20439;-64
2022/10/07 11:40:45;;;;;;;0.10;0.10;;;;;;;;;;5018037;28;20480;-65
2022/10/07 11:43:15;;;;;;;0.08;0.08;;;;;;;;;;5033299;28;20208;-70
2022/10/07 11:45:48;;;;;;;0.00;0.00;;;;;;;;;;5018046;28;20579;-73
2022/10/07 11:48:18;;;;;;;0.10;0.10;;;;;;;;;;5032683;28;20230;-71
2022/10/07 11:50:48;;;;;;;0.10;0.10;;;;;;;;;;5017640;28;20290;-72
2022/10/07 11:53:19;;;;;;;0.08;0.08;;;;;;;;;;5032727;28;20544;-68
2022/10/07 11:55:47;;;;;;;0.10;0.10;;;;;;;;;;5017775;28;20242;-66
2022/10/07 11:58:22;;;;;;;0.10;0.10;;;;;;;;;;5032921;28;20233;-68
2022/10/07 12:00:48;;;;;;;0.10;0.10;;;;;;;;;;5017803;28;20249;-69
2022/10/07 12:03:44;;;;;;;0.10;0.10;;;;;;;;;;5032611;28;20219;-67
2022/10/07 12:06:11;;;;;;;0.10;0.10;;;;;;;;;;5020799;28;20255;-69
2022/10/07 12:08:40;;;;;;;0.10;0.10;;;;;;;;;;5028950;28;20272;-70
2022/10/07 12:11:21;;;;;;;0.00;0.00;;;;;;;;;;5020529;28;20417;-69
2022/10/07 12:13:49;;;;;;;0.00;0.00;;;;;;;;;;5015429;28;20209;-68
2022/10/07 12:16:34;;;;;;;0.00;0.00;;;;;;;;;;5021429;28;20254;-68
2022/10/07 12:19:18;;;;;;;0.00;0.00;;;;;;;;;;5026405;28;20212;-69
2022/10/07 12:22:11;;;;;;;0.00;0.00;;;;;;;;;;5024772;28;20244;-69
2022/10/07 12:24:42;;;;;;;0.00;0.00;;;;;;;;;;5022574;28;20359;-67
2022/10/07 12:27:13;;;;;;;0.08;0.08;;;;;;;;;;5027351;28;20240;-67
2022/10/07 12:29:57;;;;;;;0.10;0.10;;;;;;;;;;5022214;28;20228;-68
2022/10/07 12:32:42;;;;;;;0.10;0.10;;;;;;;;;;5027531;28;20250;-67
2022/10/07 12:35:27;;;;;;;0.10;0.10;;;;;;;;;;5012639;28;20443;-68
2022/10/07 12:38:01;;;;;;;0.10;0.10;;;;;;;;;;5034329;28;20232;-67
2022/10/07 12:40:30;;;;;;;0.10;0.10;;;;;;;;;;5014753;28;20255;-66
2022/10/07 12:43:00;;;;;;;0.10;0.10;;;;;;;;;;5034331;28;20196;-68
2022/10/07 12:45:27;;;;;;;0.10;0.10;;;;;;;;;;5014999;28;20255;-67
2022/10/07 12:47:55;;;;;;;0.00;0.00;;;;;;;;;;5034500;28;20531;-68
2022/10/07 12:50:22;;;;;;;0.00;0.00;;;;;;;;;;5014106;28;20206;-68
2022/10/07 12:52:51;;;;;;;0.03;0.03;;;;;;;;;;5034872;28;20197;-68
2022/10/07 12:55:19;;;;;;;0.10;0.10;;;;;;;;;;5013597;28;20209;-70
2022/10/07 12:57:50;;;;;;;0.10;0.10;;;;;;;;;;5035288;28;20199;-69
2022/10/07 13:00:16;;;;;;;0.08;0.08;;;;;;;;;;5013381;28;20391;-69
2022/10/07 13:03:08;;;;;;;0.10;0.10;;;;;;;;;;5038293;28;20241;-69
2022/10/07 13:05:53;;;;;;;0.10;0.10;;;;;;;;;;5019404;28;20311;-70
2022/10/07 13:08:39;;;;;;;0.10;0.10;;;;;;;;;;5034482;28;20248;-68
2022/10/07 13:11:33;;;;;;;0.10;0.10;;;;;;;;;;5022986;28;20298;-69
2022/10/07 13:14:02;;;;;;;0.08;0.08;;;;;;;;;;5029473;28;20203;-69
2022/10/07 13:16:32;;;;;;;0.10;0.10;;;;;;;;;;5025902;28;20251;-71
2022/10/07 13:19:02;;;;;;;0.00;0.00;;;;;;;;;;5029665;28;20200;-71
2022/10/07 13:21:34;;;;;;;0.00;0.00;;;;;;;;;;5025820;28;20567;-71
2022/10/07 13:24:01;;;;;;;0.05;0.05;;;;;;;;;;5029544;28;20289;-72
2022/10/07 13:26:27;;;;;;;0.10;0.10;;;;;;;;;;5025738;28;20330;-73
2022/10/07 13:28:55;;;;;;;0.10;0.10;;;;;;;;;;5029757;28;20297;-72
2022/10/07 13:31:24;;;;;;;0.10;0.10;;;;;;;;;;5024944;28;20271;-72
2022/10/07 13:33:51;;;;;;;0.00;0.00;;;;;;;;;;5030778;28;20205;-72
2022/10/07 13:36:19;;;;;;;0.10;0.10;;;;;;;;;;5024333;28;20453;-72
2022/10/07 13:38:46;;;;;;;0.00;0.00;;;;;;;;;;5030644;28;20288;-72
2022/10/07 13:41:19;;;;;;;0.00;0.00;;;;;;;;;;5023909;28;20242;-71
2022/10/07 13:43:45;;;;;;;0.10;0.10;;;;;;;;;;5031239;28;20247;-72
2022/10/07 13:46:13;;;;;;;0.10;0.10;;;;;;;;;;5023893;28;20246;-72
2022/10/07 13:48:43;;;;;;;0.10;0.10;;;;;;;;;;5031507;28;20228;-72
2022/10/07 13:51:13;;;;;;;0.10;0.10;;;;;;;;;;5023159;28;20440;-71
2022/10/07 13:53:40;;;;;;;0.10;0.10;;;;;;;;;;5031810;28;20274;-66
2022/10/07 13:56:08;;;;;;;0.00;0.00;;;;;;;;;;5022896;28;20300;-66
2022/10/07 13:58:34;;;;;;;0.00;0.00;;;;;;;;;;5032153;28;20202;-66
2022/10/07 14:01:02;;;;;;;0.10;0.10;;;;;;;;;;5022578;28;20240;-66
2022/10/07 14:03:29;;;;;;;0.10;0.10;;;;;;;;;;5032774;28;20389;-66
2022/10/07 14:05:56;;;;;;;0.00;0.00;;;;;;;;;;5021397;28;20241;-66
2022/10/07 14:08:26;;;;;;;0.00;0.00;;;;;;;;;;5033821;28;20236;-66
2022/10/07 14:10:55;;;;;;;0.10;0.10;;;;;;;;;;5020855;28;20258;-65
2022/10/07 14:13:22;;;;;;;0.05;0.05;;;;;;;;;;5032456;28;20521;-65
2022/10/07 14:15:50;;;;;;;0.03;0.03;;;;;;;;;;5020341;28;20345;-65
2022/10/07 14:18:17;;;;;;;0.10;0.10;;;;;;;;;;5034122;28;20203;-65
2022/10/07 14:20:48;;;;;;;0.08;0.08;;;;;;;;;;5019357;28;20298;-66
2022/10/07 14:23:20;;;;;;;0.00;0.00;;;;;;;;;;5034237;28;20201;-66
2022/10/07 14:25:51;;;;;;;0.10;0.10;;;;;;;;;;5019926;28;20310;-65
2022/10/07 14:28:19;;;;;;;0.03;0.03;;;;;;;;;;5033570;28;20416;-66
2022/10/07 14:36:29;;;;;;;0.05;0.05;;;;;;;;;;5024953;28;20266;-70
2022/10/07 14:39:02;;;;;;;0.10;0.10;;;;;;;;;;5028536;28;20282;-71
2022/10/07 14:41:28;;;;;;;0.00;0.00;;;;;;;;;;5024846;28;20330;-71
2022/10/07 14:43:58;;;;;;;0.00;0.00;;;;;;;;;;5028788;28;20207;-71
2022/10/07 14:46:26;;;;;;;0.10;0.10;;;;;;;;;;5024315;28;20246;-71
2022/10/07 14:48:52;;;;;;;0.00;0.00;;;;;;;;;;5029262;28;20252;-71
2022/10/07 14:51:20;;;;;;;0.00;0.00;;;;;;;;;;5023513;28;20309;-70
2022/10/07 14:53:48;;;;;;;0.00;0.00;;;;;;;;;;5029543;28;20212;-71
2022/10/07 14:56:20;;;;;;;0.10;0.10;;;;;;;;;;5022464;28;20242;-70
2022/10/07 14:58:46;;;;;;;0.10;0.10;;;;;;;;;;5029686;28;20227;-70
2022/10/07 15:01:12;;;;;;;0.03;0.03;;;;;;;;;;5022381;28;20245;-71
2022/10/07 15:03:39;;;;;;;0.00;0.00;;;;;;;;;;5030674;28;20510;-71
2022/10/07 15:06:05;;;;;;;0.08;0.08;;;;;;;;;;5021255;28;20443;-72
2022/10/07 15:08:32;;;;;;;0.00;0.00;;;;;;;;;;5030744;28;20232;-71